sensor_id;sensor_type;location;lat;lon;timestamp;P1;durP1;ratioP1;P2;durP2;ratioP2
16998;SDS011;10211;49.476;11.010;2023-05-10T00:00:55;5.00;;;4.50;;
16998;SDS011;10211;49.476;11.010;2023-05-10T00:03:21;4.43;;;4.03;;
16998;SDS011;10211;49.476;11.010;2023-05-10T00:05:48;4.80;;;4.33;;
16998;SDS011;10211;49.476;11.010;2023-05-10T00:08:15;5.67;;;4.27;;
16998;SDS011;10211;49.476;11.010;2023-05-10T00:10:42;6.00;;;4.40;;
16998;SDS011;10211;49.476;11.010;2023-05-10T00:13:08;4.83;;;4.40;;
16998;SDS011;10211;49.476;11.010;2023-05-10T00:15:36;7.00;;;5.20;;
16998;SDS011;10211;49.476;11.010;2023-05-10T00:18:03;5.63;;;4.70;;
16998;SDS011;10211;49.476;11.010;2023-05-10T00:20:30;5.57;;;4.60;;
16998;SDS011;10211;49.476;11.010;2023-05-10T00:22:56;5.93;;;5.00;;
16998;SDS011;10211;49.476;11.010;2023-05-10T00:25:23;6.53;;;4.77;;
16998;SDS011;10211;49.476;11.010;2023-05-10T00:27:50;5.33;;;4.83;;
16998;SDS011;10211;49.476;11.010;2023-05-10T00:30:18;7.97;;;6.00;;
16998;SDS011;10211;49.476;11.010;2023-05-10T00:32:46;7.20;;;6.00;;
16998;SDS011;10211;49.476;11.010;2023-05-10T00:35:14;5.43;;;4.80;;
16998;SDS011;10211;49.476;11.010;2023-05-10T00:37:41;5.77;;;5.20;;
16998;SDS011;10211;49.476;11.010;2023-05-10T00:40:08;8.03;;;5.40;;
16998;SDS011;10211;49.476;11.010;2023-05-10T00:42:35;6.93;;;5.53;;
16998;SDS011;10211;49.476;11.010;2023-05-10T00:45:02;5.83;;;5.23;;
16998;SDS011;10211;49.476;11.010;2023-05-10T00:47:29;5.83;;;5.23;;
16998;SDS011;10211;49.476;11.010;2023-05-10T00:49:58;6.43;;;5.83;;
16998;SDS011;10211;49.476;11.010;2023-05-10T00:52:26;7.07;;;6.37;;
16998;SDS011;10211;49.476;11.010;2023-05-10T00:54:53;7.47;;;6.67;;
16998;SDS011;10211;49.476;11.010;2023-05-10T00:57:20;6.57;;;5.97;;
16998;SDS011;10211;49.476;11.010;2023-05-10T00:59:47;6.10;;;5.50;;
16998;SDS011;10211;49.476;11.010;2023-05-10T01:02:14;6.20;;;5.60;;
16998;SDS011;10211;49.476;11.010;2023-05-10T01:04:41;5.90;;;5.30;;
16998;SDS011;10211;49.476;11.010;2023-05-10T01:07:10;6.10;;;5.50;;
16998;SDS011;10211;49.476;11.010;2023-05-10T01:09:37;7.30;;;5.70;;
16998;SDS011;10211;49.476;11.010;2023-05-10T01:12:04;5.67;;;5.00;;
16998;SDS011;10211;49.476;11.010;2023-05-10T01:14:32;7.07;;;6.27;;
16998;SDS011;10211;49.476;11.010;2023-05-10T01:17:01;6.07;;;5.47;;
16998;SDS011;10211;49.476;11.010;2023-05-10T01:19:29;6.37;;;5.77;;
16998;SDS011;10211;49.476;11.010;2023-05-10T01:22:02;6.20;;;5.60;;
16998;SDS011;10211;49.476;11.010;2023-05-10T01:24:40;6.23;;;5.40;;
16998;SDS011;10211;49.476;11.010;2023-05-10T01:27:47;6.70;;;5.10;;
16998;SDS011;10211;49.476;11.010;2023-05-10T01:30:56;7.80;;;4.63;;
16998;SDS011;10211;49.476;11.010;2023-05-10T01:33:36;6.23;;;5.33;;
16998;SDS011;10211;49.476;11.010;2023-05-10T01:36:11;6.47;;;5.60;;
16998;SDS011;10211;49.476;11.010;2023-05-10T01:38:43;7.43;;;5.50;;
16998;SDS011;10211;49.476;11.010;2023-05-10T01:41:17;6.33;;;5.47;;
16998;SDS011;10211;49.476;11.010;2023-05-10T01:43:48;5.23;;;4.73;;
16998;SDS011;10211;49.476;11.010;2023-05-10T01:46:24;5.87;;;5.27;;
16998;SDS011;10211;49.476;11.010;2023-05-10T01:48:58;5.20;;;4.70;;
16998;SDS011;10211;49.476;11.010;2023-05-10T01:51:27;8.80;;;4.67;;
16998;SDS011;10211;49.476;11.010;2023-05-10T01:54:00;5.40;;;4.67;;
16998;SDS011;10211;49.476;11.010;2023-05-10T01:56:29;5.70;;;5.10;;
16998;SDS011;10211;49.476;11.010;2023-05-10T01:58:59;4.80;;;4.40;;
16998;SDS011;10211;49.476;11.010;2023-05-10T02:01:27;4.93;;;4.43;;
16998;SDS011;10211;49.476;11.010;2023-05-10T02:03:54;6.33;;;5.00;;
16998;SDS011;10211;49.476;11.010;2023-05-10T02:06:23;5.00;;;4.17;;
16998;SDS011;10211;49.476;11.010;2023-05-10T02:08:51;5.37;;;4.80;;
16998;SDS011;10211;49.476;11.010;2023-05-10T02:11:20;5.33;;;4.63;;
16998;SDS011;10211;49.476;11.010;2023-05-10T02:13:49;5.10;;;4.60;;
16998;SDS011;10211;49.476;11.010;2023-05-10T02:16:17;5.47;;;4.97;;
16998;SDS011;10211;49.476;11.010;2023-05-10T02:18:48;5.43;;;4.63;;
16998;SDS011;10211;49.476;11.010;2023-05-10T02:21:18;5.17;;;4.60;;
16998;SDS011;10211;49.476;11.010;2023-05-10T02:23:47;5.43;;;4.40;;
16998;SDS011;10211;49.476;11.010;2023-05-10T02:26:16;5.97;;;4.60;;
16998;SDS011;10211;49.476;11.010;2023-05-10T02:28:45;6.17;;;4.53;;
16998;SDS011;10211;49.476;11.010;2023-05-10T02:31:12;5.20;;;4.07;;
16998;SDS011;10211;49.476;11.010;2023-05-10T02:33:40;4.50;;;4.10;;
16998;SDS011;10211;49.476;11.010;2023-05-10T02:36:08;5.10;;;4.60;;
16998;SDS011;10211;49.476;11.010;2023-05-10T02:38:36;4.17;;;3.77;;
16998;SDS011;10211;49.476;11.010;2023-05-10T02:41:05;3.30;;;2.70;;
16998;SDS011;10211;49.476;11.010;2023-05-10T02:43:34;3.53;;;2.93;;
16998;SDS011;10211;49.476;11.010;2023-05-10T02:46:02;3.53;;;3.23;;
16998;SDS011;10211;49.476;11.010;2023-05-10T02:48:29;3.90;;;3.23;;
16998;SDS011;10211;49.476;11.010;2023-05-10T02:50:59;3.47;;;3.13;;
16998;SDS011;10211;49.476;11.010;2023-05-10T02:53:30;3.70;;;2.77;;
16998;SDS011;10211;49.476;11.010;2023-05-10T02:56:00;2.57;;;1.90;;
16998;SDS011;10211;49.476;11.010;2023-05-10T02:58:34;8.37;;;2.57;;
16998;SDS011;10211;49.476;11.010;2023-05-10T03:01:01;2.23;;;2.03;;
16998;SDS011;10211;49.476;11.010;2023-05-10T03:03:27;2.33;;;2.13;;
16998;SDS011;10211;49.476;11.010;2023-05-10T03:05:54;2.47;;;2.27;;
16998;SDS011;10211;49.476;11.010;2023-05-10T03:08:21;2.30;;;2.07;;
16998;SDS011;10211;49.476;11.010;2023-05-10T03:10:52;3.20;;;2.47;;
16998;SDS011;10211;49.476;11.010;2023-05-10T03:13:25;2.30;;;2.10;;
16998;SDS011;10211;49.476;11.010;2023-05-10T03:15:57;2.87;;;2.17;;
16998;SDS011;10211;49.476;11.010;2023-05-10T03:18:32;1.83;;;1.73;;
16998;SDS011;10211;49.476;11.010;2023-05-10T03:21:04;3.30;;;2.10;;
16998;SDS011;10211;49.476;11.010;2023-05-10T03:23:35;2.30;;;2.10;;
16998;SDS011;10211;49.476;11.010;2023-05-10T03:26:07;1.60;;;1.50;;
16998;SDS011;10211;49.476;11.010;2023-05-10T03:28:34;2.60;;;1.50;;
16998;SDS011;10211;49.476;11.010;2023-05-10T03:31:04;1.83;;;1.50;;
16998;SDS011;10211;49.476;11.010;2023-05-10T03:33:31;2.67;;;1.90;;
16998;SDS011;10211;49.476;11.010;2023-05-10T03:35:58;1.60;;;1.50;;
16998;SDS011;10211;49.476;11.010;2023-05-10T03:38:25;1.20;;;1.10;;
16998;SDS011;10211;49.476;11.010;2023-05-10T03:40:52;1.13;;;1.07;;
16998;SDS011;10211;49.476;11.010;2023-05-10T03:43:18;1.07;;;1.00;;
16998;SDS011;10211;49.476;11.010;2023-05-10T03:45:45;1.07;;;1.07;;
16998;SDS011;10211;49.476;11.010;2023-05-10T03:48:13;0.93;;;0.90;;
16998;SDS011;10211;49.476;11.010;2023-05-10T03:50:40;0.67;;;0.67;;
16998;SDS011;10211;49.476;11.010;2023-05-10T03:53:07;0.50;;;0.50;;
16998;SDS011;10211;49.476;11.010;2023-05-10T03:55:34;2.13;;;0.70;;
16998;SDS011;10211;49.476;11.010;2023-05-10T03:58:01;0.70;;;0.70;;
16998;SDS011;10211;49.476;11.010;2023-05-10T04:00:28;0.60;;;0.60;;
16998;SDS011;10211;49.476;11.010;2023-05-10T04:02:55;0.47;;;0.47;;
16998;SDS011;10211;49.476;11.010;2023-05-10T04:05:23;0.53;;;0.53;;
16998;SDS011;10211;49.476;11.010;2023-05-10T04:07:49;0.60;;;0.60;;
16998;SDS011;10211;49.476;11.010;2023-05-10T04:10:16;0.50;;;0.50;;
16998;SDS011;10211;49.476;11.010;2023-05-10T04:12:43;0.50;;;0.50;;
16998;SDS011;10211;49.476;11.010;2023-05-10T04:15:10;0.50;;;0.50;;
16998;SDS011;10211;49.476;11.010;2023-05-10T04:17:36;1.00;;;0.50;;
16998;SDS011;10211;49.476;11.010;2023-05-10T04:20:04;0.70;;;0.70;;
16998;SDS011;10211;49.476;11.010;2023-05-10T04:22:33;0.50;;;0.50;;
16998;SDS011;10211;49.476;11.010;2023-05-10T04:24:59;1.33;;;0.57;;
16998;SDS011;10211;49.476;11.010;2023-05-10T04:27:26;1.03;;;0.57;;
16998;SDS011;10211;49.476;11.010;2023-05-10T04:29:53;0.67;;;0.60;;
16998;SDS011;10211;49.476;11.010;2023-05-10T04:32:19;1.50;;;0.40;;
16998;SDS011;10211;49.476;11.010;2023-05-10T04:34:46;0.50;;;0.50;;
16998;SDS011;10211;49.476;11.010;2023-05-10T04:37:13;0.60;;;0.60;;
16998;SDS011;10211;49.476;11.010;2023-05-10T04:39:41;0.57;;;0.57;;
16998;SDS011;10211;49.476;11.010;2023-05-10T04:42:08;0.80;;;0.60;;
16998;SDS011;10211;49.476;11.010;2023-05-10T04:44:34;0.90;;;0.90;;
16998;SDS011;10211;49.476;11.010;2023-05-10T04:47:01;0.40;;;0.40;;
16998;SDS011;10211;49.476;11.010;2023-05-10T04:49:28;0.50;;;0.50;;
16998;SDS011;10211;49.476;11.010;2023-05-10T04:51:55;0.83;;;0.70;;
16998;SDS011;10211;49.476;11.010;2023-05-10T04:54:22;3.83;;;0.83;;
16998;SDS011;10211;49.476;11.010;2023-05-10T04:56:50;0.50;;;0.50;;
16998;SDS011;10211;49.476;11.010;2023-05-10T04:59:17;1.03;;;0.50;;
16998;SDS011;10211;49.476;11.010;2023-05-10T05:01:44;0.40;;;0.40;;
16998;SDS011;10211;49.476;11.010;2023-05-10T05:04:10;0.33;;;0.33;;
16998;SDS011;10211;49.476;11.010;2023-05-10T05:06:37;0.77;;;0.40;;
16998;SDS011;10211;49.476;11.010;2023-05-10T05:09:04;0.50;;;0.50;;
16998;SDS011;10211;49.476;11.010;2023-05-10T05:11:30;0.60;;;0.60;;
16998;SDS011;10211;49.476;11.010;2023-05-10T05:13:58;0.50;;;0.50;;
16998;SDS011;10211;49.476;11.010;2023-05-10T05:16:25;0.40;;;0.40;;
16998;SDS011;10211;49.476;11.010;2023-05-10T05:18:52;0.50;;;0.50;;
16998;SDS011;10211;49.476;11.010;2023-05-10T05:21:19;0.90;;;0.80;;
16998;SDS011;10211;49.476;11.010;2023-05-10T05:23:46;0.70;;;0.67;;
16998;SDS011;10211;49.476;11.010;2023-05-10T05:26:13;0.70;;;0.70;;
16998;SDS011;10211;49.476;11.010;2023-05-10T05:28:39;1.60;;;0.77;;
16998;SDS011;10211;49.476;11.010;2023-05-10T05:31:07;0.83;;;0.50;;
16998;SDS011;10211;49.476;11.010;2023-05-10T05:33:35;0.70;;;0.67;;
16998;SDS011;10211;49.476;11.010;2023-05-10T05:36:01;0.50;;;0.50;;
16998;SDS011;10211;49.476;11.010;2023-05-10T05:38:29;1.93;;;0.60;;
16998;SDS011;10211;49.476;11.010;2023-05-10T05:40:55;0.70;;;0.60;;
16998;SDS011;10211;49.476;11.010;2023-05-10T05:43:22;0.63;;;0.63;;
16998;SDS011;10211;49.476;11.010;2023-05-10T05:45:49;0.77;;;0.77;;
16998;SDS011;10211;49.476;11.010;2023-05-10T05:48:20;0.60;;;0.60;;
16998;SDS011;10211;49.476;11.010;2023-05-10T05:50:47;0.80;;;0.80;;
16998;SDS011;10211;49.476;11.010;2023-05-10T05:53:13;1.03;;;0.93;;
16998;SDS011;10211;49.476;11.010;2023-05-10T05:55:40;0.80;;;0.80;;
16998;SDS011;10211;49.476;11.010;2023-05-10T05:58:16;0.60;;;0.57;;
16998;SDS011;10211;49.476;11.010;2023-05-10T06:00:43;0.80;;;0.80;;
16998;SDS011;10211;49.476;11.010;2023-05-10T06:03:09;0.70;;;0.70;;
16998;SDS011;10211;49.476;11.010;2023-05-10T06:05:37;0.60;;;0.60;;
16998;SDS011;10211;49.476;11.010;2023-05-10T06:08:04;0.63;;;0.60;;
16998;SDS011;10211;49.476;11.010;2023-05-10T06:10:31;0.70;;;0.70;;
16998;SDS011;10211;49.476;11.010;2023-05-10T06:12:58;1.07;;;0.90;;
16998;SDS011;10211;49.476;11.010;2023-05-10T06:15:24;0.90;;;0.90;;
16998;SDS011;10211;49.476;11.010;2023-05-10T06:17:51;1.43;;;0.70;;
16998;SDS011;10211;49.476;11.010;2023-05-10T06:20:18;1.83;;;0.80;;
16998;SDS011;10211;49.476;11.010;2023-05-10T06:22:46;0.87;;;0.87;;
16998;SDS011;10211;49.476;11.010;2023-05-10T06:25:12;0.90;;;0.90;;
16998;SDS011;10211;49.476;11.010;2023-05-10T06:27:42;1.57;;;0.83;;
16998;SDS011;10211;49.476;11.010;2023-05-10T06:30:09;1.13;;;0.90;;
16998;SDS011;10211;49.476;11.010;2023-05-10T06:32:38;0.70;;;0.70;;
16998;SDS011;10211;49.476;11.010;2023-05-10T06:35:05;3.07;;;0.80;;
16998;SDS011;10211;49.476;11.010;2023-05-10T06:37:33;1.80;;;0.90;;
16998;SDS011;10211;49.476;11.010;2023-05-10T06:40:01;0.70;;;0.70;;
16998;SDS011;10211;49.476;11.010;2023-05-10T06:42:28;1.50;;;1.40;;
16998;SDS011;10211;49.476;11.010;2023-05-10T06:44:55;3.13;;;1.00;;
16998;SDS011;10211;49.476;11.010;2023-05-10T06:47:21;0.83;;;0.70;;
16998;SDS011;10211;49.476;11.010;2023-05-10T06:49:48;0.83;;;0.73;;
16998;SDS011;10211;49.476;11.010;2023-05-10T06:52:15;0.70;;;0.70;;
16998;SDS011;10211;49.476;11.010;2023-05-10T06:54:41;1.53;;;0.63;;
16998;SDS011;10211;49.476;11.010;2023-05-10T06:57:10;1.13;;;0.90;;
16998;SDS011;10211;49.476;11.010;2023-05-10T06:59:37;1.10;;;1.00;;
16998;SDS011;10211;49.476;11.010;2023-05-10T07:02:04;0.90;;;0.70;;
16998;SDS011;10211;49.476;11.010;2023-05-10T07:04:31;0.63;;;0.63;;
16998;SDS011;10211;49.476;11.010;2023-05-10T07:06:57;0.70;;;0.70;;
16998;SDS011;10211;49.476;11.010;2023-05-10T07:09:24;0.87;;;0.87;;
16998;SDS011;10211;49.476;11.010;2023-05-10T07:11:51;1.10;;;1.00;;
16998;SDS011;10211;49.476;11.010;2023-05-10T07:14:19;0.73;;;0.73;;
16998;SDS011;10211;49.476;11.010;2023-05-10T07:16:46;0.70;;;0.70;;
16998;SDS011;10211;49.476;11.010;2023-05-10T07:19:12;2.00;;;1.20;;
16998;SDS011;10211;49.476;11.010;2023-05-10T07:21:39;1.10;;;1.00;;
16998;SDS011;10211;49.476;11.010;2023-05-10T07:24:08;3.53;;;1.00;;
16998;SDS011;10211;49.476;11.010;2023-05-10T07:26:34;1.00;;;0.90;;
16998;SDS011;10211;49.476;11.010;2023-05-10T07:29:01;0.73;;;0.73;;
16998;SDS011;10211;49.476;11.010;2023-05-10T07:31:29;3.50;;;0.90;;
16998;SDS011;10211;49.476;11.010;2023-05-10T07:33:56;0.70;;;0.70;;
16998;SDS011;10211;49.476;11.010;2023-05-10T07:36:22;0.90;;;0.80;;
16998;SDS011;10211;49.476;11.010;2023-05-10T07:38:49;0.93;;;0.90;;
16998;SDS011;10211;49.476;11.010;2023-05-10T07:41:16;1.10;;;0.77;;
16998;SDS011;10211;49.476;11.010;2023-05-10T07:43:43;1.27;;;1.03;;
16998;SDS011;10211;49.476;11.010;2023-05-10T07:46:09;0.70;;;0.70;;
16998;SDS011;10211;49.476;11.010;2023-05-10T07:48:37;0.80;;;0.80;;
16998;SDS011;10211;49.476;11.010;2023-05-10T07:51:04;0.93;;;0.80;;
16998;SDS011;10211;49.476;11.010;2023-05-10T07:53:34;2.10;;;1.27;;
16998;SDS011;10211;49.476;11.010;2023-05-10T07:56:19;0.90;;;0.90;;
16998;SDS011;10211;49.476;11.010;2023-05-10T07:58:47;0.83;;;0.83;;
16998;SDS011;10211;49.476;11.010;2023-05-10T08:01:14;1.27;;;0.97;;
16998;SDS011;10211;49.476;11.010;2023-05-10T08:03:42;0.90;;;0.90;;
16998;SDS011;10211;49.476;11.010;2023-05-10T08:06:09;1.00;;;1.00;;
16998;SDS011;10211;49.476;11.010;2023-05-10T08:08:36;1.13;;;0.93;;
16998;SDS011;10211;49.476;11.010;2023-05-10T08:11:03;1.15;;;0.90;;
16998;SDS011;10211;49.476;11.010;2023-05-10T08:13:30;2.57;;;1.10;;
16998;SDS011;10211;49.476;11.010;2023-05-10T08:15:56;2.40;;;0.70;;
16998;SDS011;10211;49.476;11.010;2023-05-10T08:18:23;1.77;;;0.93;;
16998;SDS011;10211;49.476;11.010;2023-05-10T08:20:51;0.90;;;0.90;;
16998;SDS011;10211;49.476;11.010;2023-05-10T08:23:18;1.20;;;1.00;;
16998;SDS011;10211;49.476;11.010;2023-05-10T08:25:45;2.47;;;0.80;;
16998;SDS011;10211;49.476;11.010;2023-05-10T08:28:11;2.03;;;0.77;;
16998;SDS011;10211;49.476;11.010;2023-05-10T08:30:38;0.80;;;0.80;;
16998;SDS011;10211;49.476;11.010;2023-05-10T08:33:05;1.17;;;0.93;;
16998;SDS011;10211;49.476;11.010;2023-05-10T08:35:31;0.70;;;0.70;;
16998;SDS011;10211;49.476;11.010;2023-05-10T08:38:01;0.77;;;0.77;;
16998;SDS011;10211;49.476;11.010;2023-05-10T08:40:28;1.13;;;0.70;;
16998;SDS011;10211;49.476;11.010;2023-05-10T08:42:55;0.80;;;0.80;;
16998;SDS011;10211;49.476;11.010;2023-05-10T08:45:29;3.07;;;0.70;;
16998;SDS011;10211;49.476;11.010;2023-05-10T08:47:58;1.57;;;1.30;;
16998;SDS011;10211;49.476;11.010;2023-05-10T08:50:27;1.17;;;0.90;;
16998;SDS011;10211;49.476;11.010;2023-05-10T08:52:55;1.10;;;1.10;;
16998;SDS011;10211;49.476;11.010;2023-05-10T08:55:27;1.20;;;1.10;;
16998;SDS011;10211;49.476;11.010;2023-05-10T08:57:54;1.13;;;1.00;;
16998;SDS011;10211;49.476;11.010;2023-05-10T09:00:21;1.00;;;0.90;;
16998;SDS011;10211;49.476;11.010;2023-05-10T09:02:49;2.00;;;1.00;;
16998;SDS011;10211;49.476;11.010;2023-05-10T09:05:15;2.00;;;1.30;;
16998;SDS011;10211;49.476;11.010;2023-05-10T09:07:42;3.87;;;0.90;;
16998;SDS011;10211;49.476;11.010;2023-05-10T09:10:09;1.00;;;0.90;;
16998;SDS011;10211;49.476;11.010;2023-05-10T09:12:38;1.00;;;1.00;;
16998;SDS011;10211;49.476;11.010;2023-05-10T09:15:06;2.93;;;1.23;;
16998;SDS011;10211;49.476;11.010;2023-05-10T09:17:34;5.87;;;1.00;;
16998;SDS011;10211;49.476;11.010;2023-05-10T09:20:03;1.40;;;1.30;;
16998;SDS011;10211;49.476;11.010;2023-05-10T09:22:31;1.87;;;1.40;;
16998;SDS011;10211;49.476;11.010;2023-05-10T09:25:07;2.03;;;1.10;;
16998;SDS011;10211;49.476;11.010;2023-05-10T09:27:36;3.17;;;1.10;;
16998;SDS011;10211;49.476;11.010;2023-05-10T09:30:05;1.50;;;1.40;;
16998;SDS011;10211;49.476;11.010;2023-05-10T09:32:38;1.63;;;1.53;;
16998;SDS011;10211;49.476;11.010;2023-05-10T09:35:06;3.27;;;1.77;;
16998;SDS011;10211;49.476;11.010;2023-05-10T09:37:34;7.80;;;2.50;;
16998;SDS011;10211;49.476;11.010;2023-05-10T09:40:03;9.80;;;3.73;;
16998;SDS011;10211;49.476;11.010;2023-05-10T09:42:31;16.13;;;6.37;;
16998;SDS011;10211;49.476;11.010;2023-05-10T09:45:00;7.17;;;3.70;;
16998;SDS011;10211;49.476;11.010;2023-05-10T09:47:29;35.03;;;13.03;;
16998;SDS011;10211;49.476;11.010;2023-05-10T09:49:58;2.03;;;1.43;;
16998;SDS011;10211;49.476;11.010;2023-05-10T09:52:28;2.10;;;1.15;;
16998;SDS011;10211;49.476;11.010;2023-05-10T09:54:55;2.38;;;0.80;;
16998;SDS011;10211;49.476;11.010;2023-05-10T09:57:22;1.65;;;0.80;;
16998;SDS011;10211;49.476;11.010;2023-05-10T09:59:50;1.17;;;0.63;;
16998;SDS011;10211;49.476;11.010;2023-05-10T10:02:19;2.15;;;0.70;;
16998;SDS011;10211;49.476;11.010;2023-05-10T10:04:49;1.65;;;0.57;;
16998;SDS011;10211;49.476;11.010;2023-05-10T10:07:17;1.95;;;0.60;;
16998;SDS011;10211;49.476;11.010;2023-05-10T10:09:49;0.98;;;0.68;;
16998;SDS011;10211;49.476;11.010;2023-05-10T10:12:16;1.95;;;0.70;;
16998;SDS011;10211;49.476;11.010;2023-05-10T10:14:44;2.28;;;0.60;;
16998;SDS011;10211;49.476;11.010;2023-05-10T10:17:12;1.17;;;0.60;;
16998;SDS011;10211;49.476;11.010;2023-05-10T10:19:39;0.73;;;0.70;;
16998;SDS011;10211;49.476;11.010;2023-05-10T10:22:08;0.80;;;0.70;;
16998;SDS011;10211;49.476;11.010;2023-05-10T10:24:37;1.25;;;0.60;;
16998;SDS011;10211;49.476;11.010;2023-05-10T10:27:07;3.28;;;1.15;;
16998;SDS011;10211;49.476;11.010;2023-05-10T10:29:48;1.00;;;0.60;;
16998;SDS011;10211;49.476;11.010;2023-05-10T10:32:26;0.65;;;0.65;;
16998;SDS011;10211;49.476;11.010;2023-05-10T10:35:01;1.20;;;0.65;;
16998;SDS011;10211;49.476;11.010;2023-05-10T10:37:44;0.90;;;0.57;;
16998;SDS011;10211;49.476;11.010;2023-05-10T10:40:27;1.10;;;0.70;;
16998;SDS011;10211;49.476;11.010;2023-05-10T10:42:55;0.55;;;0.55;;
16998;SDS011;10211;49.476;11.010;2023-05-10T10:45:23;1.00;;;0.80;;
16998;SDS011;10211;49.476;11.010;2023-05-10T10:47:53;0.70;;;0.70;;
16998;SDS011;10211;49.476;11.010;2023-05-10T10:50:42;2.77;;;0.90;;
16998;SDS011;10211;49.476;11.010;2023-05-10T10:53:11;3.33;;;0.90;;
16998;SDS011;10211;49.476;11.010;2023-05-10T10:55:44;3.03;;;1.10;;
16998;SDS011;10211;49.476;11.010;2023-05-10T10:58:15;1.17;;;1.07;;
16998;SDS011;10211;49.476;11.010;2023-05-10T11:01:08;1.10;;;1.00;;
16998;SDS011;10211;49.476;11.010;2023-05-10T11:03:39;1.80;;;0.97;;
16998;SDS011;10211;49.476;11.010;2023-05-10T11:06:06;3.57;;;0.87;;
16998;SDS011;10211;49.476;11.010;2023-05-10T11:08:40;0.80;;;0.80;;
16998;SDS011;10211;49.476;11.010;2023-05-10T11:11:08;1.77;;;0.90;;
16998;SDS011;10211;49.476;11.010;2023-05-10T11:13:39;1.13;;;0.80;;
16998;SDS011;10211;49.476;11.010;2023-05-10T11:16:10;1.00;;;1.00;;
16998;SDS011;10211;49.476;11.010;2023-05-10T11:18:39;2.37;;;1.30;;
16998;SDS011;10211;49.476;11.010;2023-05-10T11:21:07;3.47;;;1.57;;
16998;SDS011;10211;49.476;11.010;2023-05-10T11:23:49;4.53;;;1.00;;
16998;SDS011;10211;49.476;11.010;2023-05-10T11:26:17;2.33;;;0.87;;
16998;SDS011;10211;49.476;11.010;2023-05-10T11:28:48;1.63;;;1.20;;
16998;SDS011;10211;49.476;11.010;2023-05-10T11:31:15;1.20;;;1.10;;
16998;SDS011;10211;49.476;11.010;2023-05-10T11:33:43;0.93;;;0.90;;
16998;SDS011;10211;49.476;11.010;2023-05-10T11:36:11;1.30;;;1.10;;
16998;SDS011;10211;49.476;11.010;2023-05-10T11:38:38;0.93;;;0.80;;
16998;SDS011;10211;49.476;11.010;2023-05-10T11:41:06;1.20;;;1.10;;
16998;SDS011;10211;49.476;11.010;2023-05-10T11:43:34;1.40;;;0.90;;
16998;SDS011;10211;49.476;11.010;2023-05-10T11:46:03;0.70;;;0.70;;
16998;SDS011;10211;49.476;11.010;2023-05-10T11:48:30;1.40;;;1.03;;
16998;SDS011;10211;49.476;11.010;2023-05-10T11:50:57;1.87;;;1.10;;
16998;SDS011;10211;49.476;11.010;2023-05-10T11:53:25;1.50;;;1.13;;
16998;SDS011;10211;49.476;11.010;2023-05-10T11:55:53;1.23;;;1.07;;
16998;SDS011;10211;49.476;11.010;2023-05-10T11:58:21;1.23;;;1.10;;
16998;SDS011;10211;49.476;11.010;2023-05-10T12:00:49;1.13;;;1.00;;
16998;SDS011;10211;49.476;11.010;2023-05-10T12:03:16;0.80;;;0.80;;
16998;SDS011;10211;49.476;11.010;2023-05-10T12:05:43;1.73;;;1.10;;
16998;SDS011;10211;49.476;11.010;2023-05-10T12:08:13;0.70;;;0.70;;
16998;SDS011;10211;49.476;11.010;2023-05-10T12:10:41;2.37;;;0.70;;
16998;SDS011;10211;49.476;11.010;2023-05-10T12:13:10;2.73;;;0.63;;
16998;SDS011;10211;49.476;11.010;2023-05-10T12:15:40;0.93;;;0.93;;
16998;SDS011;10211;49.476;11.010;2023-05-10T12:18:07;1.97;;;0.70;;
16998;SDS011;10211;49.476;11.010;2023-05-10T12:20:35;4.30;;;0.90;;
16998;SDS011;10211;49.476;11.010;2023-05-10T12:23:02;1.00;;;0.90;;
16998;SDS011;10211;49.476;11.010;2023-05-10T12:25:31;1.00;;;0.80;;
16998;SDS011;10211;49.476;11.010;2023-05-10T12:27:59;1.60;;;0.90;;
16998;SDS011;10211;49.476;11.010;2023-05-10T12:30:29;0.70;;;0.70;;
16998;SDS011;10211;49.476;11.010;2023-05-10T12:33:02;0.60;;;0.60;;
16998;SDS011;10211;49.476;11.010;2023-05-10T12:35:33;3.50;;;0.60;;
16998;SDS011;10211;49.476;11.010;2023-05-10T12:38:22;1.80;;;0.70;;
16998;SDS011;10211;49.476;11.010;2023-05-10T12:40:51;0.70;;;0.70;;
16998;SDS011;10211;49.476;11.010;2023-05-10T12:43:18;0.57;;;0.57;;
16998;SDS011;10211;49.476;11.010;2023-05-10T12:45:45;0.60;;;0.60;;
16998;SDS011;10211;49.476;11.010;2023-05-10T12:48:15;0.67;;;0.60;;
16998;SDS011;10211;49.476;11.010;2023-05-10T12:50:41;1.73;;;0.70;;
16998;SDS011;10211;49.476;11.010;2023-05-10T12:53:08;1.53;;;0.83;;
16998;SDS011;10211;49.476;11.010;2023-05-10T12:55:35;0.50;;;0.50;;
16998;SDS011;10211;49.476;11.010;2023-05-10T12:58:02;0.40;;;0.40;;
16998;SDS011;10211;49.476;11.010;2023-05-10T13:00:28;2.23;;;0.63;;
16998;SDS011;10211;49.476;11.010;2023-05-10T13:02:55;0.60;;;0.60;;
16998;SDS011;10211;49.476;11.010;2023-05-10T13:05:23;1.80;;;0.70;;
16998;SDS011;10211;49.476;11.010;2023-05-10T13:07:50;1.20;;;1.03;;
16998;SDS011;10211;49.476;11.010;2023-05-10T13:10:17;1.37;;;0.87;;
16998;SDS011;10211;49.476;11.010;2023-05-10T13:12:44;1.23;;;1.00;;
16998;SDS011;10211;49.476;11.010;2023-05-10T13:15:10;4.27;;;1.47;;
16998;SDS011;10211;49.476;11.010;2023-05-10T13:17:37;1.87;;;0.90;;
16998;SDS011;10211;49.476;11.010;2023-05-10T13:20:06;3.40;;;1.30;;
16998;SDS011;10211;49.476;11.010;2023-05-10T13:22:34;5.47;;;1.90;;
16998;SDS011;10211;49.476;11.010;2023-05-10T13:25:01;6.90;;;2.60;;
16998;SDS011;10211;49.476;11.010;2023-05-10T13:27:28;7.47;;;2.73;;
16998;SDS011;10211;49.476;11.010;2023-05-10T13:29:55;6.60;;;2.23;;
16998;SDS011;10211;49.476;11.010;2023-05-10T13:32:24;5.60;;;1.57;;
16998;SDS011;10211;49.476;11.010;2023-05-10T13:34:51;4.60;;;2.87;;
16998;SDS011;10211;49.476;11.010;2023-05-10T13:37:17;3.03;;;1.70;;
16998;SDS011;10211;49.476;11.010;2023-05-10T13:39:45;6.27;;;2.13;;
16998;SDS011;10211;49.476;11.010;2023-05-10T13:42:12;3.67;;;1.80;;
16998;SDS011;10211;49.476;11.010;2023-05-10T13:44:39;2.07;;;1.87;;
16998;SDS011;10211;49.476;11.010;2023-05-10T13:47:06;2.20;;;1.67;;
16998;SDS011;10211;49.476;11.010;2023-05-10T13:49:32;1.73;;;1.13;;
16998;SDS011;10211;49.476;11.010;2023-05-10T13:51:59;1.80;;;1.57;;
16998;SDS011;10211;49.476;11.010;2023-05-10T13:54:30;3.43;;;1.77;;
16998;SDS011;10211;49.476;11.010;2023-05-10T13:56:59;3.57;;;1.30;;
16998;SDS011;10211;49.476;11.010;2023-05-10T13:59:25;3.53;;;1.00;;
16998;SDS011;10211;49.476;11.010;2023-05-10T14:01:52;2.43;;;0.97;;
16998;SDS011;10211;49.476;11.010;2023-05-10T14:04:19;2.13;;;1.20;;
16998;SDS011;10211;49.476;11.010;2023-05-10T14:06:45;2.63;;;2.23;;
16998;SDS011;10211;49.476;11.010;2023-05-10T14:09:13;0.93;;;0.70;;
16998;SDS011;10211;49.476;11.010;2023-05-10T14:11:39;1.27;;;0.80;;
16998;SDS011;10211;49.476;11.010;2023-05-10T14:14:09;1.20;;;0.70;;
16998;SDS011;10211;49.476;11.010;2023-05-10T14:16:36;1.03;;;0.93;;
16998;SDS011;10211;49.476;11.010;2023-05-10T14:19:03;1.67;;;0.83;;
16998;SDS011;10211;49.476;11.010;2023-05-10T14:21:30;0.67;;;0.67;;
16998;SDS011;10211;49.476;11.010;2023-05-10T14:23:56;0.80;;;0.80;;
16998;SDS011;10211;49.476;11.010;2023-05-10T14:26:23;0.70;;;0.70;;
16998;SDS011;10211;49.476;11.010;2023-05-10T14:28:51;0.90;;;0.70;;
16998;SDS011;10211;49.476;11.010;2023-05-10T14:31:19;0.97;;;0.83;;
16998;SDS011;10211;49.476;11.010;2023-05-10T14:33:46;5.07;;;1.17;;
16998;SDS011;10211;49.476;11.010;2023-05-10T14:36:13;0.83;;;0.73;;
16998;SDS011;10211;49.476;11.010;2023-05-10T14:38:39;0.80;;;0.80;;
16998;SDS011;10211;49.476;11.010;2023-05-10T14:41:06;0.83;;;0.83;;